createdAt,value
2019-01-17T00:00:47.212Z,99654.55
2019-01-17T00:03:47.439Z,99656.20
2019-01-17T00:06:38.546Z,99660.92
2019-01-17T00:09:14.030Z,99655.91
2019-01-17T00:12:11.265Z,99643.52
2019-01-17T00:15:08.139Z,99649.53
2019-01-17T00:17:54.609Z,99644.42
2019-01-17T00:20:41.356Z,99653.20
2019-01-17T00:23:27.613Z,99642.66
2019-01-17T00:26:10.069Z,99635.81
2019-01-17T00:28:56.437Z,99633.61
2019-01-17T00:31:32.131Z,99639.61
2019-01-17T00:34:26.076Z,99648.62
2019-01-17T00:37:16.923Z,99659.14
2019-01-17T00:40:20.282Z,99670.80
2019-01-17T00:43:02.629Z,99665.41
2019-01-17T00:45:56.528Z,99669.88
2019-01-17T00:48:33.046Z,99679.33
2019-01-17T00:51:19.890Z,99673.33
2019-01-17T00:54:09.152Z,99683.23
2019-01-17T00:56:54.000Z,99679.53
2019-01-17T00:59:44.612Z,99675.59
2019-01-17T01:02:47.798Z,99671.23
2019-01-17T01:05:41.675Z,99651.31
2019-01-17T01:08:47.809Z,99648.03
2019-01-17T01:11:38.436Z,99665.54
2019-01-17T01:14:17.263Z,99666.39
2019-01-17T01:17:10.606Z,99658.66
2019-01-17T01:19:48.943Z,99658.44
2019-01-17T01:22:45.940Z,99667.64
2019-01-17T01:25:25.143Z,99664.03
2019-01-17T01:28:15.197Z,99665.41
2019-01-17T01:30:58.360Z,99668.69
2019-01-17T01:33:45.056Z,99676.32
2019-01-17T01:36:39.137Z,99683.47
2019-01-17T01:39:18.766Z,99679.16
2019-01-17T01:42:05.476Z,99679.78
2019-01-17T01:44:59.251Z,99680.28
2019-01-17T01:47:46.016Z,99672.74
2019-01-17T01:50:42.953Z,99672.02
2019-01-17T01:53:11.865Z,99676.41
2019-01-17T01:55:40.726Z,99678.19
2019-01-17T01:58:09.616Z,99686.38
2019-01-17T02:00:38.501Z,99690.36
2019-01-17T02:03:07.416Z,99694.21
2019-01-17T02:05:36.277Z,99698.10
2019-01-17T02:08:05.500Z,99699.08
2019-01-17T02:10:34.403Z,99694.13
2019-01-17T02:13:03.338Z,99694.56
2019-01-17T02:15:32.179Z,99692.53
2019-01-17T02:18:01.122Z,99700.30
2019-01-17T02:20:29.921Z,99695.73
2019-01-17T02:22:58.794Z,99692.17
2019-01-17T02:25:27.638Z,99689.93
2019-01-17T02:27:56.517Z,99692.73
2019-01-17T02:30:25.391Z,99690.23
2019-01-17T02:32:54.271Z,99697.12
2019-01-17T02:35:23.164Z,99692.69
2019-01-17T02:37:52.034Z,99687.28
2019-01-17T02:40:20.916Z,99691.48
2019-01-17T02:42:49.790Z,99682.38
2019-01-17T02:45:18.665Z,99687.63
2019-01-17T02:47:47.544Z,99691.06
2019-01-17T02:50:16.460Z,99699.09
2019-01-17T02:52:45.367Z,99688.93
2019-01-17T02:55:14.192Z,99685.86
2019-01-17T02:57:43.071Z,99700.14
2019-01-17T03:00:14.677Z,99688.67
2019-01-17T03:02:43.572Z,99691.92
2019-01-17T03:05:12.460Z,99688.93
2019-01-17T03:07:41.349Z,99685.36
2019-01-17T03:10:13.390Z,99677.08
2019-01-17T03:12:42.298Z,99680.64
2019-01-17T03:15:11.189Z,99678.81
2019-01-17T03:17:40.088Z,99675.70
2019-01-17T03:20:09.980Z,99678.35
2019-01-17T03:22:38.835Z,99668.72
2019-01-17T03:25:08.190Z,99673.08
2019-01-17T03:27:37.085Z,99666.73
2019-01-17T03:30:12.408Z,99660.88
2019-01-17T03:32:41.275Z,99667.72
2019-01-17T03:35:10.172Z,99677.62
2019-01-17T03:37:39.034Z,99672.47
2019-01-17T03:40:09.513Z,99672.61
2019-01-17T03:42:38.408Z,99680.02
2019-01-17T03:45:08.209Z,99688.98
2019-01-17T03:47:37.084Z,99685.61
2019-01-17T03:50:07.324Z,99679.45
2019-01-17T03:52:36.209Z,99682.36
2019-01-17T03:55:05.220Z,99654.85
2019-01-17T03:57:34.113Z,99658.59
2019-01-17T04:00:03.015Z,99649.61
2019-01-17T04:02:31.892Z,99657.95
2019-01-17T04:05:00.815Z,99659.52
2019-01-17T04:07:29.673Z,99664.88
2019-01-17T04:09:58.552Z,99671.11
2019-01-17T04:12:27.449Z,99675.06
2019-01-17T04:14:56.342Z,99675.31
2019-01-17T04:17:25.205Z,99672.41
2019-01-17T04:19:54.107Z,99667.59
2019-01-17T04:22:22.973Z,99662.94
2019-01-17T04:24:57.345Z,99654.12
2019-01-17T04:27:20.724Z,99644.59
2019-01-17T04:29:49.596Z,99651.58
2019-01-17T04:32:18.489Z,99650.10
2019-01-17T04:34:47.389Z,99645.00
2019-01-17T04:37:16.269Z,99641.91
2019-01-17T04:39:45.154Z,99642.18
2019-01-17T04:42:14.039Z,99645.70
2019-01-17T04:44:42.927Z,99631.77
2019-01-17T04:47:11.824Z,99629.48
2019-01-17T04:49:40.707Z,99636.07
2019-01-17T04:52:09.611Z,99621.86
2019-01-17T04:54:38.580Z,99628.63
2019-01-17T04:57:07.385Z,99625.78
2019-01-17T04:59:36.254Z,99632.52
2019-01-17T05:02:05.220Z,99632.95
2019-01-17T05:04:34.087Z,99631.38
2019-01-17T05:07:03.002Z,99632.09
2019-01-17T05:09:31.873Z,99640.78
2019-01-17T05:12:00.771Z,99637.45
2019-01-17T05:14:29.653Z,99637.97
2019-01-17T05:16:58.539Z,99641.58
2019-01-17T05:19:27.431Z,99641.75
2019-01-17T05:21:56.326Z,99636.71
2019-01-17T05:24:25.228Z,99637.66
2019-01-17T05:26:54.104Z,99638.41
2019-01-17T05:29:22.981Z,99637.63
2019-01-17T05:31:51.851Z,99634.94
2019-01-17T05:34:20.747Z,99636.32
2019-01-17T05:36:49.647Z,99638.74
2019-01-17T05:39:18.543Z,99625.88
2019-01-17T05:41:47.413Z,99630.06
2019-01-17T05:44:16.271Z,99631.14
2019-01-17T05:46:45.145Z,99634.14
2019-01-17T05:49:14.012Z,99632.34
2019-01-17T05:51:42.914Z,99631.44
2019-01-17T05:54:11.780Z,99624.59
2019-01-17T05:56:40.680Z,99629.38
2019-01-17T05:59:09.555Z,99620.89
2019-01-17T06:01:38.445Z,99621.09
2019-01-17T06:04:07.350Z,99630.20
2019-01-17T06:06:36.225Z,99638.94
2019-01-17T06:09:08.414Z,99625.18
2019-01-17T06:11:37.300Z,99623.27
2019-01-17T06:14:06.224Z,99621.34
2019-01-17T06:16:35.095Z,99623.58
2019-01-17T06:19:03.970Z,99625.30
2019-01-17T06:21:32.835Z,99626.55
2019-01-17T06:24:01.756Z,99625.99
2019-01-17T06:26:30.635Z,99635.30
2019-01-17T06:28:59.501Z,99619.57
2019-01-17T06:31:28.392Z,99623.60
2019-01-17T06:33:57.262Z,99617.89
2019-01-17T06:36:26.176Z,99609.24
2019-01-17T06:38:55.051Z,99614.45
2019-01-17T06:41:23.907Z,99619.63
2019-01-17T06:43:52.803Z,99612.27
2019-01-17T06:46:21.723Z,99613.12
2019-01-17T06:48:50.596Z,99613.48
2019-01-17T06:51:19.450Z,99611.08
2019-01-17T06:53:48.342Z,99616.23
2019-01-17T06:56:17.207Z,99604.47
2019-01-17T06:58:46.124Z,99604.92
2019-01-17T07:01:15.013Z,99622.50
2019-01-17T07:03:43.913Z,99612.53
2019-01-17T07:06:12.769Z,99616.01
2019-01-17T07:08:41.645Z,99617.73
2019-01-17T07:11:10.548Z,99610.30
2019-01-17T07:13:39.448Z,99612.45
2019-01-17T07:16:08.375Z,99611.66
2019-01-17T07:18:37.258Z,99614.82
2019-01-17T07:21:06.251Z,99612.99
2019-01-17T07:23:35.113Z,99613.20
2019-01-17T07:26:04.018Z,99620.55
2019-01-17T07:28:32.913Z,99614.19
2019-01-17T07:31:01.785Z,99612.98
2019-01-17T07:33:30.691Z,99615.67
2019-01-17T07:35:59.542Z,99623.13
2019-01-17T07:38:28.496Z,99626.25
2019-01-17T07:40:57.379Z,99625.27
2019-01-17T07:43:26.249Z,99627.14
2019-01-17T07:45:55.154Z,99636.03
2019-01-17T07:48:24.034Z,99635.43
2019-01-17T07:50:52.925Z,99635.70
2019-01-17T07:53:21.825Z,99639.95
2019-01-17T07:55:50.691Z,99643.28
2019-01-17T07:58:19.572Z,99632.02
2019-01-17T08:00:48.459Z,99631.34
2019-01-17T08:03:17.349Z,99635.44
2019-01-17T08:05:46.223Z,99631.98
2019-01-17T08:08:15.105Z,99626.48
2019-01-17T08:10:43.959Z,99631.56
2019-01-17T08:13:17.760Z,99631.55
2019-01-17T08:15:52.108Z,99622.77
2019-01-17T08:18:21.299Z,99625.89
2019-01-17T08:20:55.403Z,99620.02
2019-01-17T08:23:27.016Z,99620.44
2019-01-17T08:25:58.946Z,99624.67
2019-01-17T08:28:30.063Z,99620.43
2019-01-17T08:30:59.510Z,99626.94
2019-01-17T08:33:33.058Z,99634.23
2019-01-17T08:36:05.094Z,99641.53
2019-01-17T08:38:35.531Z,99649.95
2019-01-17T08:41:08.211Z,99642.30
2019-01-17T08:43:37.453Z,99645.77
2019-01-17T08:46:12.998Z,99647.83
2019-01-17T08:48:42.911Z,99650.02
2019-01-17T08:51:12.467Z,99657.55
2019-01-17T08:53:43.982Z,99646.33
2019-01-17T08:56:13.443Z,99662.98
2019-01-17T08:58:42.647Z,99665.05
2019-01-17T09:01:14.389Z,99656.30
2019-01-17T09:03:43.640Z,99669.20
2019-01-17T09:06:13.078Z,99676.62
2019-01-17T09:08:44.166Z,99676.81
2019-01-17T09:11:31.497Z,99683.19
2019-01-17T09:14:00.587Z,99691.42
2019-01-17T09:16:35.331Z,99694.66
2019-01-17T09:19:11.536Z,99698.33
2019-01-17T09:21:44.591Z,99693.75
2019-01-17T09:24:16.990Z,99687.72
2019-01-17T09:26:46.496Z,99692.53
2019-01-17T09:29:16.787Z,99691.28
2019-01-17T09:31:49.213Z,99686.08
2019-01-17T09:34:18.398Z,99689.25
2019-01-17T09:36:47.683Z,99694.12
2019-01-17T09:39:17.107Z,99688.15
2019-01-17T09:41:46.747Z,99687.20
2019-01-17T09:44:17.515Z,99680.02
2019-01-17T09:46:51.205Z,99674.97
2019-01-17T09:49:20.307Z,99666.33
2019-01-17T09:51:51.917Z,99668.28
2019-01-17T09:54:20.994Z,99664.01
2019-01-17T09:56:51.730Z,99657.52
2019-01-17T09:59:20.831Z,99662.83
2019-01-17T10:01:54.184Z,99669.45
2019-01-17T10:04:26.571Z,99667.46
2019-01-17T10:06:58.792Z,99666.61
2019-01-17T10:09:27.810Z,99665.52
2019-01-17T10:12:00.435Z,99663.75
2019-01-17T10:14:29.654Z,99659.64
2019-01-17T10:17:27.126Z,99657.94
2019-01-17T10:20:34.619Z,99652.88
2019-01-17T10:23:50.637Z,99658.00
2019-01-17T10:26:47.383Z,99666.47
2019-01-17T10:29:54.930Z,99679.72
2019-01-17T10:32:40.166Z,99678.38
2019-01-17T10:35:57.014Z,99675.52
2019-01-17T10:38:50.909Z,99672.28
2019-01-17T10:42:07.490Z,99663.75
2019-01-17T10:45:28.837Z,99672.83
2019-01-17T10:48:39.690Z,99669.77
2019-01-17T10:51:41.359Z,99667.63
2019-01-17T10:54:57.397Z,99667.94
2019-01-17T10:57:58.222Z,99664.89
2019-01-17T11:00:58.350Z,99667.44
2019-01-17T11:03:59.904Z,99665.34
2019-01-17T11:07:03.794Z,99669.31
2019-01-17T11:09:57.839Z,99671.47
2019-01-17T11:13:05.842Z,99664.06
2019-01-17T11:16:15.513Z,99674.88
2019-01-17T11:19:07.471Z,99671.17
2019-01-17T11:22:11.862Z,99679.11
2019-01-17T11:25:14.642Z,99679.66
2019-01-17T11:28:13.868Z,99707.02
2019-01-17T11:31:19.355Z,99705.52
2019-01-17T11:34:13.732Z,99711.37
2019-01-17T11:37:21.177Z,99722.03
2019-01-17T11:40:23.933Z,99734.80
2019-01-17T11:43:10.460Z,99739.43
2019-01-17T11:46:30.858Z,99744.20
2019-01-17T11:49:36.084Z,99741.75
2019-01-17T11:52:29.075Z,99746.41
2019-01-17T11:55:40.578Z,99752.92
2019-01-17T11:58:21.181Z,99742.92
2019-01-17T12:01:54.029Z,99751.45
2019-01-17T12:04:53.963Z,99746.52
2019-01-17T12:07:27.961Z,99747.67
2019-01-17T12:09:58.413Z,99744.14
2019-01-17T12:12:33.708Z,99745.92
2019-01-17T12:15:01.434Z,99749.88
2019-01-17T12:17:31.400Z,99749.14
2019-01-17T12:20:06.170Z,99750.90
2019-01-17T12:22:35.048Z,99755.47
2019-01-17T12:25:04.223Z,99757.80
2019-01-17T12:27:33.096Z,99760.62
2019-01-17T12:30:02.085Z,99763.45
2019-01-17T12:32:30.939Z,99758.80
2019-01-17T12:34:59.806Z,99766.05
2019-01-17T12:37:28.718Z,99758.11
2019-01-17T12:40:00.336Z,99764.13
2019-01-17T12:42:29.243Z,99773.14
2019-01-17T12:44:58.110Z,99772.50
2019-01-17T12:47:26.982Z,99782.83
2019-01-17T12:49:55.861Z,99779.85
2019-01-17T12:52:24.733Z,99777.22
2019-01-17T12:54:53.593Z,99785.44
2019-01-17T12:57:22.545Z,99786.52
2019-01-17T12:59:51.446Z,99789.84
2019-01-17T13:02:20.343Z,99788.99
2019-01-17T13:04:49.242Z,99781.72
2019-01-17T13:07:18.145Z,99783.11
2019-01-17T13:09:47.027Z,99786.11
2019-01-17T13:12:15.891Z,99783.47
2019-01-17T13:14:44.803Z,99790.00
2019-01-17T13:17:13.687Z,99792.48
2019-01-17T13:19:42.578Z,99800.34
2019-01-17T13:22:11.474Z,99804.36
2019-01-17T13:24:40.379Z,99804.70
2019-01-17T13:27:09.295Z,99807.92
2019-01-17T13:29:38.193Z,99814.42
2019-01-17T13:32:07.249Z,99822.66
2019-01-17T13:34:36.161Z,99825.87
2019-01-17T13:37:05.105Z,99828.04
2019-01-17T13:39:33.989Z,99829.78
2019-01-17T13:42:02.890Z,99827.16
2019-01-17T13:44:31.743Z,99837.84
2019-01-17T13:47:00.609Z,99842.76
2019-01-17T13:49:29.487Z,99839.71
2019-01-17T13:51:58.332Z,99846.43
2019-01-17T13:54:27.212Z,99842.60
2019-01-17T13:56:56.087Z,99841.45
2019-01-17T13:59:24.967Z,99852.30
2019-01-17T14:01:53.853Z,99849.98
2019-01-17T14:04:22.729Z,99864.16
2019-01-17T14:06:52.667Z,99867.82
2019-01-17T14:09:21.594Z,99868.00
2019-01-17T14:11:52.686Z,99875.27
2019-01-17T14:14:21.561Z,99878.63
2019-01-17T14:16:50.428Z,99880.00
2019-01-17T14:19:19.359Z,99881.19
2019-01-17T14:21:48.275Z,99880.73
2019-01-17T14:24:17.129Z,99883.90
2019-01-17T14:26:46.004Z,99890.30
2019-01-17T14:29:14.872Z,99890.17
2019-01-17T14:31:43.799Z,99906.17
2019-01-17T14:34:12.712Z,99908.98
2019-01-17T14:36:41.640Z,99920.98
2019-01-17T14:39:10.504Z,99923.06
2019-01-17T14:41:39.368Z,99933.21
2019-01-17T14:44:08.431Z,99932.04
2019-01-17T14:46:37.299Z,99934.86
2019-01-17T14:49:06.233Z,99937.31
2019-01-17T14:51:36.039Z,99941.03
2019-01-17T14:54:04.996Z,99943.11
2019-01-17T14:56:34.047Z,99950.89
2019-01-17T14:59:02.916Z,99956.63
2019-01-17T15:01:31.841Z,99960.33
2019-01-17T15:04:00.721Z,99962.27
2019-01-17T15:06:29.634Z,99961.81
2019-01-17T15:08:58.494Z,99970.17
2019-01-17T15:11:27.401Z,99965.69
2019-01-17T15:13:58.823Z,99976.17
2019-01-17T15:16:27.709Z,99977.22
2019-01-17T15:18:56.629Z,99981.89
2019-01-17T15:21:25.543Z,99981.30
2019-01-17T15:23:54.430Z,99990.43
2019-01-17T15:26:23.315Z,100000.68
2019-01-17T15:28:52.202Z,100005.33
2019-01-17T15:31:21.171Z,100000.95
2019-01-17T15:33:50.086Z,100017.77
2019-01-17T15:36:18.965Z,100018.73
2019-01-17T15:38:47.856Z,100025.58
2019-01-17T15:41:16.747Z,100026.89
2019-01-17T15:43:45.637Z,100030.33
2019-01-17T15:46:14.539Z,100039.83
2019-01-17T15:48:43.458Z,100034.81
2019-01-17T15:51:12.362Z,100045.22
2019-01-17T15:53:41.265Z,100047.53
2019-01-17T15:56:10.134Z,100059.23
2019-01-17T15:58:39.074Z,100068.34
2019-01-17T16:01:08.101Z,100071.36
2019-01-17T16:03:37.021Z,100073.41
2019-01-17T16:06:05.963Z,100076.47
2019-01-17T16:08:35.115Z,100092.52
2019-01-17T16:11:04.434Z,100096.05
2019-01-17T16:13:34.034Z,100100.22
2019-01-17T16:16:07.910Z,100112.50
2019-01-17T16:18:37.408Z,100133.19
2019-01-17T16:21:09.808Z,100143.32
2019-01-17T16:23:41.749Z,100149.05
2019-01-17T16:26:11.945Z,100148.80
2019-01-17T16:28:40.927Z,100154.64
2019-01-17T16:31:10.635Z,100162.42
2019-01-17T16:33:42.089Z,100157.64
2019-01-17T16:36:11.299Z,100150.90
2019-01-17T16:38:45.069Z,100153.30
2019-01-17T16:41:12.822Z,100157.62
2019-01-17T16:43:42.212Z,100165.30
2019-01-17T16:46:11.448Z,100169.64
2019-01-17T16:48:40.678Z,100175.59
2019-01-17T16:51:11.622Z,100188.88
2019-01-17T16:53:41.722Z,100195.09
2019-01-17T16:56:10.909Z,100196.11
2019-01-17T16:58:42.418Z,100208.12
2019-01-17T17:01:11.962Z,100221.09
2019-01-17T17:03:41.294Z,100214.55
2019-01-17T17:06:10.577Z,100223.45
2019-01-17T17:08:43.604Z,100233.77
2019-01-17T17:11:12.697Z,100232.11
2019-01-17T17:13:41.993Z,100235.00
2019-01-17T17:16:16.592Z,100240.92
2019-01-17T17:18:50.963Z,100250.98
2019-01-17T17:21:22.859Z,100250.95
2019-01-17T17:23:53.822Z,100252.50
2019-01-17T17:26:28.357Z,100263.32
2019-01-17T17:28:57.647Z,100271.56
2019-01-17T17:31:26.872Z,100269.23
2019-01-17T17:33:56.135Z,100271.17
2019-01-17T17:36:25.393Z,100273.77
2019-01-17T17:38:54.560Z,100276.89
2019-01-17T17:41:23.952Z,100277.54
2019-01-17T17:43:53.116Z,100279.39
2019-01-17T17:46:22.291Z,100283.44
2019-01-17T17:48:51.656Z,100288.89
2019-01-17T17:51:21.074Z,100299.52
2019-01-17T17:53:50.312Z,100307.84
2019-01-17T17:56:21.746Z,100304.36
2019-01-17T17:58:50.901Z,100321.86
2019-01-17T18:01:29.664Z,100319.38
2019-01-17T18:03:59.395Z,100335.81
2019-01-17T18:06:28.519Z,100343.70
2019-01-17T18:08:57.707Z,100351.23
2019-01-17T18:11:26.801Z,100357.79
2019-01-17T18:13:59.479Z,100366.91
2019-01-17T18:16:30.918Z,100365.80
2019-01-17T18:19:02.532Z,100379.92
2019-01-17T18:21:33.632Z,100366.70
2019-01-17T18:24:01.772Z,100359.79
2019-01-17T18:26:30.989Z,100366.48
2019-01-17T18:29:00.278Z,100379.36
2019-01-17T18:31:29.349Z,100389.69
2019-01-17T18:33:58.542Z,100392.12
2019-01-17T18:36:30.128Z,100390.06
2019-01-17T18:38:59.233Z,100396.70
2019-01-17T18:41:28.519Z,100402.08
2019-01-17T18:43:57.640Z,100400.97
2019-01-17T18:46:26.826Z,100403.55
2019-01-17T18:48:58.764Z,100407.03
2019-01-17T18:51:27.973Z,100408.66
2019-01-17T18:53:58.977Z,100417.77
2019-01-17T18:56:28.354Z,100423.41
2019-01-17T18:58:57.320Z,100425.22
2019-01-17T19:01:26.599Z,100435.95
2019-01-17T19:03:55.908Z,100440.25
2019-01-17T19:06:25.025Z,100452.58
2019-01-17T19:08:54.150Z,100449.23
2019-01-17T19:11:23.412Z,100460.44
2019-01-17T19:13:52.615Z,100467.70
2019-01-17T19:16:24.589Z,100475.03
2019-01-17T19:18:53.695Z,100475.05
2019-01-17T19:21:22.844Z,100478.39
2019-01-17T19:23:51.915Z,100482.40
2019-01-17T19:26:21.063Z,100487.95
2019-01-17T19:28:50.194Z,100493.68
2019-01-17T19:31:19.356Z,100495.66
2019-01-17T19:33:51.153Z,100501.23
2019-01-17T19:36:23.449Z,100502.09
2019-01-17T19:38:56.058Z,100511.82
2019-01-17T19:41:25.451Z,100511.73
2019-01-17T19:43:57.414Z,100517.84
2019-01-17T19:46:27.606Z,100532.47
2019-01-17T19:48:56.850Z,100541.34
2019-01-17T19:51:27.850Z,100536.77
2019-01-17T19:53:57.570Z,100544.01
2019-01-17T19:56:31.766Z,100548.79
2019-01-17T19:59:03.853Z,100560.18
2019-01-17T20:01:34.640Z,100564.38
2019-01-17T20:04:08.588Z,100564.76
2019-01-17T20:06:37.796Z,100559.48
2019-01-17T20:09:09.696Z,100558.45
2019-01-17T20:11:44.665Z,100566.74
2019-01-17T20:14:13.628Z,100569.72
2019-01-17T20:16:44.875Z,100578.97
2019-01-17T20:19:16.929Z,100585.30
2019-01-17T20:21:43.496Z,100583.28
2019-01-17T20:24:17.354Z,100595.31
2019-01-17T20:26:46.626Z,100596.17
2019-01-17T20:29:15.988Z,100601.70
2019-01-17T20:31:47.172Z,100609.93
2019-01-17T20:34:16.749Z,100611.29
2019-01-17T20:36:46.011Z,100610.70
2019-01-17T20:39:17.858Z,100611.44
2019-01-17T20:41:44.331Z,100615.93
2019-01-17T20:44:16.331Z,100625.11
2019-01-17T20:46:45.510Z,100631.27
2019-01-17T20:49:17.156Z,100633.73
2019-01-17T20:51:48.134Z,100640.38
2019-01-17T20:54:17.365Z,100650.34
2019-01-17T20:56:46.495Z,100664.92
2019-01-17T20:59:16.067Z,100669.72
2019-01-17T21:01:57.940Z,100675.28
2019-01-17T21:04:26.810Z,100674.50
2019-01-17T21:06:55.676Z,100677.95
2019-01-17T21:09:24.575Z,100681.27
2019-01-17T21:11:53.454Z,100684.42
2019-01-17T21:14:23.731Z,100687.19
2019-01-17T21:16:55.245Z,100685.33
2019-01-17T21:19:21.611Z,100703.75
2019-01-17T21:21:50.469Z,100705.64
2019-01-17T21:24:19.361Z,100705.73
2019-01-17T21:26:48.255Z,100701.23
2019-01-17T21:29:17.138Z,100710.52
2019-01-17T21:31:46.043Z,100703.61
2019-01-17T21:34:14.971Z,100714.00
2019-01-17T21:36:43.818Z,100717.15
2019-01-17T21:39:12.694Z,100726.89
2019-01-17T21:41:44.030Z,100733.27
2019-01-17T21:44:10.476Z,100737.09
2019-01-17T21:46:39.388Z,100738.42
2019-01-17T21:49:08.289Z,100740.98
2019-01-17T21:51:37.174Z,100761.25
2019-01-17T21:54:06.091Z,100763.17
2019-01-17T21:56:34.975Z,100771.41
2019-01-17T21:59:03.924Z,100775.59
2019-01-17T22:01:32.832Z,100783.53
2019-01-17T22:04:01.684Z,100791.88
2019-01-17T22:06:30.562Z,100805.15
2019-01-17T22:08:59.407Z,100808.08
2019-01-17T22:11:28.296Z,100817.06
2019-01-17T22:13:57.186Z,100831.83
2019-01-17T22:16:26.127Z,100828.95
2019-01-17T22:18:55.159Z,100823.52
2019-01-17T22:21:24.029Z,100825.72
2019-01-17T22:23:52.896Z,100836.59
2019-01-17T22:26:21.755Z,100847.04
2019-01-17T22:28:50.631Z,100858.91
2019-01-17T22:31:19.500Z,100863.02
2019-01-17T22:33:48.388Z,100871.34
2019-01-17T22:36:17.285Z,100860.66
2019-01-17T22:38:46.139Z,100858.44
2019-01-17T22:41:15.027Z,100851.74
2019-01-17T22:43:43.941Z,100851.16
2019-01-17T22:46:12.788Z,100833.02
2019-01-17T22:48:41.660Z,100843.52
2019-01-17T22:51:10.563Z,100855.14
2019-01-17T22:53:39.446Z,100858.38
2019-01-17T22:56:08.364Z,100863.02
2019-01-17T22:58:37.225Z,100855.62
2019-01-17T23:01:21.470Z,100866.09
2019-01-17T23:03:51.472Z,100879.41
2019-01-17T23:06:20.337Z,100888.52
2019-01-17T23:08:49.211Z,100896.93
2019-01-17T23:11:18.053Z,100896.93
2019-01-17T23:13:46.964Z,100907.32
2019-01-17T23:16:15.821Z,100899.52
2019-01-17T23:18:44.707Z,100896.75
2019-01-17T23:21:13.600Z,100898.05
2019-01-17T23:23:42.599Z,100892.00
2019-01-17T23:26:11.498Z,100895.30
2019-01-17T23:28:40.385Z,100894.67
2019-01-17T23:31:09.311Z,100900.97
2019-01-17T23:33:38.174Z,100900.38
2019-01-17T23:36:07.119Z,100900.77
2019-01-17T23:38:35.976Z,100909.61
2019-01-17T23:41:04.909Z,100910.74
2019-01-17T23:43:33.771Z,100915.22
2019-01-17T23:46:02.648Z,100924.18
2019-01-17T23:48:31.525Z,100925.25
2019-01-17T23:51:00.401Z,100929.73
2019-01-17T23:53:29.316Z,100935.08
2019-01-17T23:55:58.200Z,100939.63
2019-01-17T23:58:27.095Z,100952.52
